Map

Track Data

SID SEASON NUMBER BASIN SUBBASIN NAME ISO_TIME NATURE LAT LON WMO_WIND WMO_PRES WMO_AGENCY TRACK_TYPE DIST2LAND LANDFALL IFLAG USA_AGENCY USA_ATCF_ID USA_LAT USA_LON USA_RECORD USA_STATUS USA_WIND USA_PRES USA_SSHS USA_R34_NE USA_R34_SE USA_R34_SW USA_R34_NW USA_R50_NE USA_R50_SE USA_R50_SW USA_R50_NW USA_R64_NE USA_R64_SE USA_R64_SW USA_R64_NW USA_POCI USA_ROCI USA_RMW USA_EYE TOKYO_LAT TOKYO_LON TOKYO_GRADE TOKYO_WIND TOKYO_PRES TOKYO_R50_DIR TOKYO_R50_LONG TOKYO_R50_SHORT TOKYO_R30_DIR TOKYO_R30_LONG TOKYO_R30_SHORT TOKYO_LAND CMA_LAT CMA_LON CMA_CAT CMA_WIND CMA_PRES HKO_LAT HKO_LON HKO_CAT HKO_WIND HKO_PRES NEWDELHI_LAT NEWDELHI_LON NEWDELHI_GRADE NEWDELHI_WIND NEWDELHI_PRES NEWDELHI_CI NEWDELHI_DP NEWDELHI_POCI REUNION_LAT REUNION_LON REUNION_TYPE REUNION_WIND REUNION_PRES REUNION_TNUM REUNION_CI REUNION_RMW REUNION_R34_NE REUNION_R34_SE REUNION_R34_SW REUNION_R34_NW REUNION_R50_NE REUNION_R50_SE REUNION_R50_SW REUNION_R50_NW REUNION_R64_NE REUNION_R64_SE REUNION_R64_SW REUNION_R64_NW BOM_LAT BOM_LON BOM_TYPE BOM_WIND BOM_PRES BOM_TNUM BOM_CI BOM_RMW BOM_R34_NE BOM_R34_SE BOM_R34_SW BOM_R34_NW BOM_R50_NE BOM_R50_SE BOM_R50_SW BOM_R50_NW BOM_R64_NE BOM_R64_SE BOM_R64_SW BOM_R64_NW BOM_ROCI BOM_POCI BOM_EYE BOM_POS_METHOD BOM_PRES_METHOD NADI_LAT NADI_LON NADI_CAT NADI_WIND NADI_PRES WELLINGTON_LAT WELLINGTON_LON WELLINGTON_WIND WELLINGTON_PRES DS824_LAT DS824_LON DS824_STAGE DS824_WIND DS824_PRES TD9636_LAT TD9636_LON TD9636_STAGE TD9636_WIND TD9636_PRES TD9635_LAT TD9635_LON TD9635_WIND TD9635_PRES TD9635_ROCI NEUMANN_LAT NEUMANN_LON NEUMANN_CLASS NEUMANN_WIND NEUMANN_PRES MLC_LAT MLC_LON MLC_CLASS MLC_WIND MLC_PRES USA_GUST BOM_GUST BOM_GUST_PER REUNION_GUST REUNION_GUST_PER USA_SEAHGT USA_SEARAD_NE USA_SEARAD_SE USA_SEARAD_SW USA_SEARAD_NW STORM_SPEED STORM_DIR
1908102S07053 1908 15 SI MM NOT_NAMED 1908-04-10 18:00:00 NR -7.20000 53.4000 main 709 633 __________O___ -1 -7.20000 53.4000 7 15 240
1908102S07053 1908 15 SI MM NOT_NAMED 1908-04-10 21:00:00 NR -7.58849 52.7339 main 626 552 __________P___ -1 -7.58849 52.7339 7 15 239
1908102S07053 1908 15 SI MM NOT_NAMED 1908-04-11 00:00:00 NR -7.97119 52.0837 main 552 489 __________P___ -1 -7.97119 52.0837 7 15 239
1908102S07053 1908 15 SI MM NOT_NAMED 1908-04-11 03:00:00 NR -8.34325 51.4667 main 489 419 __________P___ -1 -8.34325 51.4667 7 14 238
1908102S07053 1908 15 SI MM NOT_NAMED 1908-04-11 06:00:00 NR -8.70000 50.9000 main 419 367 __________O___ -1 -8.70000 50.9000 7 13 237
1908102S07053 1908 15 SI MM NOT_NAMED 1908-04-11 09:00:00 NR -9.03875 50.3935 main 367 322 __________P___ -1 -9.03875 50.3935 7 12 235
1908102S07053 1908 15 SI MM NOT_NAMED 1908-04-11 12:00:00 NR -9.36415 49.9267 main 309 269 __________P___ -1 -9.36415 49.9267 7 11 235
1908102S07053 1908 15 SI MM NOT_NAMED 1908-04-11 15:00:00 NR -9.68251 49.4716 main 269 235 __________P___ -1 -9.68251 49.4716 7 11 235
1908102S07053 1908 15 SI MM NOT_NAMED 1908-04-11 18:00:00 NR -10.0000 49.0000 main 236 211 __________O___ -1 -10.0000 49.0000 7 12 237
1908102S07053 1908 15 SI MM NOT_NAMED 1908-04-11 21:00:00 NR -10.3293 48.4432 main 219 209 __________P___ -1 -10.3293 48.4432 7 13 239
1908102S07053 1908 15 SI MM NOT_NAMED 1908-04-12 00:00:00 NR -10.6578 47.8701 main 211 211 __________P___ -1 -10.6578 47.8701 7 13 240
1908102S07053 1908 15 SI MM NOT_NAMED 1908-04-12 03:00:00 NR -10.9824 47.3119 main 234 234 __________P___ -1 -10.9824 47.3119 7 12 239
1908102S07053 1908 15 SI MM NOT_NAMED 1908-04-12 06:00:00 NR -11.3000 46.8000 main 255 255 __________O___ -1 -11.3000 46.8000 7 11 236
1908102S07053 1908 15 SI MM NOT_NAMED 1908-04-12 09:00:00 NR -11.6026 46.3741 main 279 279 __________P___ -1 -11.6026 46.3741 7 10 233
1908102S07053 1908 15 SI MM NOT_NAMED 1908-04-12 12:00:00 NR -11.8993 45.9968 main 288 288 __________P___ -1 -11.8993 45.9968 7 9 230
1908102S07053 1908 15 SI MM NOT_NAMED 1908-04-12 15:00:00 NR -12.1964 45.6460 main 300 294 __________P___ -1 -12.1964 45.6460 7 9 229
1908102S07053 1908 15 SI MM NOT_NAMED 1908-04-12 18:00:00 NR -12.5000 45.3000 main 312 312 __________O___ -1 -12.5000 45.3000 7 9 228
1908102S07053 1908 15 SI MM NOT_NAMED 1908-04-12 21:00:00 NR -12.8145 44.9410 main 340 327 __________P___ -1 -12.8145 44.9410 7 10 228
1908102S07053 1908 15 SI MM NOT_NAMED 1908-04-13 00:00:00 NR -13.1382 44.5686 main 329 303 __________P___ -1 -13.1382 44.5686 7 10 228
1908102S07053 1908 15 SI MM NOT_NAMED 1908-04-13 03:00:00 NR -13.4678 44.1869 main 296 283 __________P___ -1 -13.4678 44.1869 7 10 228
1908102S07053 1908 15 SI MM NOT_NAMED 1908-04-13 06:00:00 NR -13.8000 43.8000 main 283 __________O___ -1 -13.8000 43.8000 7 10 228

About IBTrACS Database

This database is a web-friendly format of International Best Track Archive for Climate Stewardship (IBTrACS), a global best track data archive curated by NOAA dating back to 1842.

Updated: 2021-11-26